createdAt,value
2024-04-24T00:00:21.466Z,100.00
2024-04-24T00:04:25.717Z,100.00
2024-04-24T00:08:28.080Z,100.00
2024-04-24T00:12:30.411Z,100.00
2024-04-24T00:16:33.686Z,100.00
2024-04-24T00:20:36.110Z,100.00
2024-04-24T00:24:38.422Z,100.00
2024-04-24T00:28:40.870Z,100.00
2024-04-24T00:32:43.203Z,100.00
2024-04-24T00:36:46.206Z,100.00
2024-04-24T00:40:48.553Z,100.00
2024-04-24T00:44:50.944Z,100.00
2024-04-24T00:48:54.661Z,100.00
2024-04-24T00:52:57.681Z,100.00
2024-04-24T00:57:00.188Z,100.00
2024-04-24T01:01:03.679Z,100.00
2024-04-24T01:05:08.233Z,100.00
2024-04-24T01:09:10.625Z,100.00
2024-04-24T01:13:12.903Z,100.00
2024-04-24T01:17:18.350Z,100.00
2024-04-24T01:21:23.973Z,100.00
2024-04-24T01:25:32.791Z,100.00
2024-04-24T01:29:38.111Z,100.00
2024-04-24T01:33:43.948Z,100.00
2024-04-24T01:37:51.548Z,100.00
2024-04-24T01:41:57.012Z,100.00
2024-04-24T01:46:04.696Z,100.00
2024-04-24T01:50:12.305Z,100.00
2024-04-24T01:54:19.487Z,100.00
2024-04-24T01:58:25.848Z,100.00
2024-04-24T02:02:34.160Z,100.00
2024-04-24T02:06:39.750Z,100.00
2024-04-24T02:10:46.379Z,100.00
2024-04-24T02:14:54.784Z,100.00
2024-04-24T02:19:01.681Z,100.00
2024-04-24T02:23:08.532Z,100.00
2024-04-24T02:27:13.834Z,100.00
2024-04-24T02:31:21.675Z,100.00
2024-04-24T02:35:30.150Z,100.00
2024-04-24T02:39:36.742Z,100.00
2024-04-24T02:43:43.596Z,100.00
2024-04-24T02:47:49.598Z,100.00
2024-04-24T02:51:55.693Z,100.00
2024-04-24T02:56:01.908Z,100.00
2024-04-24T03:00:09.192Z,100.00
2024-04-24T03:04:13.240Z,100.00
2024-04-24T03:08:15.835Z,100.00
2024-04-24T03:12:18.267Z,100.00
2024-04-24T03:16:29.357Z,100.00
2024-04-24T03:20:31.792Z,100.00
2024-04-24T03:24:34.097Z,100.00
2024-04-24T03:28:36.477Z,100.00
2024-04-24T03:32:39.465Z,100.00
2024-04-24T03:36:41.987Z,100.00
2024-04-24T03:40:44.261Z,100.00
2024-04-24T03:44:46.577Z,100.00
2024-04-24T03:48:49.026Z,100.00
2024-04-24T03:52:51.478Z,100.00
2024-04-24T03:56:56.071Z,100.00
2024-04-24T04:01:00.046Z,100.00
2024-04-24T04:05:02.427Z,100.00
2024-04-24T04:09:05.035Z,100.00
2024-04-24T04:13:07.392Z,100.00
2024-04-24T04:17:09.958Z,100.00
2024-04-24T04:21:13.146Z,100.00
2024-04-24T04:25:16.110Z,100.00
2024-04-24T04:29:18.560Z,100.00
2024-04-24T04:33:21.057Z,100.00
2024-04-24T04:37:23.500Z,100.00
2024-04-24T04:41:25.914Z,100.00
2024-04-24T04:45:28.240Z,100.00
2024-04-24T04:49:30.544Z,100.00
2024-04-24T04:53:32.846Z,100.00
2024-04-24T04:57:35.310Z,100.00
2024-04-24T05:01:37.599Z,100.00
2024-04-24T05:05:39.916Z,100.00
2024-04-24T05:09:42.611Z,100.00
2024-04-24T05:13:44.993Z,100.00
2024-04-24T05:17:47.445Z,100.00
2024-04-24T05:21:49.960Z,100.00
2024-04-24T05:25:56.704Z,100.00
2024-04-24T05:29:59.184Z,100.00
2024-04-24T05:34:01.541Z,100.00
2024-04-24T05:38:04.139Z,100.00
2024-04-24T05:42:06.444Z,100.00
2024-04-24T05:46:09.083Z,100.00
2024-04-24T05:50:11.475Z,100.00
2024-04-24T05:54:13.886Z,100.00
2024-04-24T05:58:16.239Z,100.00
2024-04-24T06:02:18.705Z,100.00
2024-04-24T06:06:20.990Z,100.00
2024-04-24T06:10:23.496Z,100.00
2024-04-24T06:14:25.893Z,100.00
2024-04-24T06:18:28.347Z,100.00
2024-04-24T06:22:30.679Z,100.00
2024-04-24T06:26:33.156Z,100.00
2024-04-24T06:30:35.760Z,100.00
2024-04-24T06:34:38.236Z,100.00
2024-04-24T06:38:40.660Z,100.00
2024-04-24T06:42:42.992Z,100.00
2024-04-24T06:46:45.321Z,100.00
2024-04-24T06:50:48.183Z,100.00
2024-04-24T06:54:50.447Z,100.00
2024-04-24T06:58:52.805Z,100.00
2024-04-24T07:02:55.175Z,100.00
2024-04-24T07:06:57.567Z,100.00
2024-04-24T07:11:00.223Z,100.00
2024-04-24T07:15:02.692Z,100.00
2024-04-24T07:19:05.131Z,100.00
2024-04-24T07:23:07.619Z,100.00
2024-04-24T07:27:10.022Z,100.00
2024-04-24T07:31:12.501Z,100.00
2024-04-24T07:35:15.956Z,100.00
2024-04-24T07:39:18.515Z,100.00
2024-04-24T07:43:20.876Z,100.00
2024-04-24T07:47:23.897Z,100.00
2024-04-24T07:51:28.877Z,100.00
2024-04-24T07:55:32.100Z,100.00
2024-04-24T07:59:34.541Z,100.00
2024-04-24T08:03:37.195Z,100.00
2024-04-24T08:07:40.994Z,100.00
2024-04-24T08:11:43.637Z,100.00
2024-04-24T08:15:46.132Z,100.00
2024-04-24T08:19:48.472Z,100.00
2024-04-24T08:23:51.002Z,100.00
2024-04-24T08:27:53.421Z,100.00
2024-04-24T08:31:55.697Z,100.00
2024-04-24T08:36:11.442Z,100.00
2024-04-24T08:40:13.965Z,100.00
2024-04-24T08:44:16.718Z,100.00
2024-04-24T08:48:20.336Z,100.00
2024-04-24T08:52:24.509Z,100.00
2024-04-24T08:56:31.406Z,100.00
2024-04-24T09:00:38.925Z,100.00
2024-04-24T09:04:43.554Z,100.00
2024-04-24T09:08:47.335Z,100.00
2024-04-24T09:12:52.882Z,100.00
2024-04-24T09:16:55.601Z,100.00
2024-04-24T09:20:58.248Z,100.00
2024-04-24T09:25:00.874Z,100.00
2024-04-24T09:29:03.343Z,100.00
2024-04-24T09:33:06.737Z,100.00
2024-04-24T09:37:09.743Z,100.00
2024-04-24T09:41:12.815Z,100.00
2024-04-24T09:45:15.343Z,100.00
2024-04-24T09:49:17.786Z,100.00
2024-04-24T09:53:21.585Z,100.00
2024-04-24T09:57:31.413Z,100.00
2024-04-24T10:01:35.570Z,100.00
2024-04-24T10:05:47.543Z,100.00
2024-04-24T10:09:54.864Z,100.00
2024-04-24T10:13:59.525Z,100.00
2024-04-24T10:18:03.279Z,100.00
2024-04-24T10:22:05.980Z,100.00
2024-04-24T10:26:09.042Z,100.00
2024-04-24T10:30:12.704Z,100.00
2024-04-24T10:34:17.028Z,100.00
2024-04-24T10:38:19.314Z,100.00
2024-04-24T10:42:22.403Z,100.00
2024-04-24T10:46:26.594Z,100.00
2024-04-24T10:50:29.826Z,100.00
2024-04-24T10:54:35.266Z,100.00
2024-04-24T10:58:52.024Z,100.00
2024-04-24T11:03:00.586Z,100.00
2024-04-24T11:07:05.571Z,100.00
2024-04-24T11:11:09.753Z,100.00
2024-04-24T11:15:21.368Z,100.00
2024-04-24T11:19:23.976Z,100.00
2024-04-24T11:23:27.507Z,100.00
2024-04-24T11:27:29.966Z,100.00
2024-04-24T11:31:36.591Z,100.00
2024-04-24T11:35:42.937Z,100.00
2024-04-24T11:39:45.543Z,100.00
2024-04-24T11:43:48.048Z,100.00
2024-04-24T11:47:52.099Z,100.00
2024-04-24T11:51:55.955Z,100.00
2024-04-24T11:55:58.969Z,95.69
2024-04-24T12:00:01.981Z,100.00
2024-04-24T12:04:06.423Z,100.00
2024-04-24T12:08:09.264Z,99.35
2024-04-24T12:12:11.864Z,100.00
2024-04-24T12:16:20.289Z,96.76
2024-04-24T12:20:22.730Z,97.98
2024-04-24T12:24:26.495Z,100.00
2024-04-24T12:28:28.837Z,99.20
2024-04-24T12:32:31.443Z,100.00
2024-04-24T12:36:39.349Z,100.00
2024-04-24T12:40:41.967Z,100.00
2024-04-24T12:44:44.349Z,100.00
2024-04-24T12:48:54.477Z,100.00
2024-04-24T12:52:57.059Z,100.00
2024-04-24T12:56:59.418Z,100.00
2024-04-24T13:01:01.808Z,100.00
2024-04-24T13:05:05.487Z,100.00
2024-04-24T13:09:09.642Z,100.00
2024-04-24T13:13:12.269Z,100.00
2024-04-24T13:17:14.943Z,100.00
2024-04-24T13:21:20.217Z,100.00
2024-04-24T13:25:22.923Z,100.00
2024-04-24T13:29:26.510Z,100.00
2024-04-24T13:33:28.899Z,100.00
2024-04-24T13:37:31.228Z,100.00
2024-04-24T13:41:36.543Z,100.00
2024-04-24T13:45:40.756Z,100.00
2024-04-24T13:49:43.081Z,100.00
2024-04-24T13:53:46.685Z,97.58
2024-04-24T13:57:49.155Z,74.98
2024-04-24T14:01:51.578Z,93.10
2024-04-24T14:05:54.664Z,92.50
2024-04-24T14:09:57.116Z,89.08
2024-04-24T14:13:59.531Z,92.07
2024-04-24T14:18:01.916Z,93.38
2024-04-24T14:22:04.300Z,92.63
2024-04-24T14:26:06.702Z,91.09
2024-04-24T14:30:09.537Z,90.44
2024-04-24T14:34:13.000Z,92.99
2024-04-24T14:38:16.198Z,92.11
2024-04-24T14:42:20.691Z,92.13
2024-04-24T14:46:24.801Z,86.97
2024-04-24T14:50:27.178Z,72.14
2024-04-24T14:54:29.493Z,87.42
2024-04-24T14:58:31.915Z,92.32
2024-04-24T15:02:34.347Z,93.20
2024-04-24T15:06:41.695Z,95.63
2024-04-24T15:10:45.053Z,95.30
2024-04-24T15:14:52.288Z,93.19
2024-04-24T15:18:55.299Z,94.88
2024-04-24T15:22:58.097Z,97.99
2024-04-24T15:27:00.447Z,96.95
2024-04-24T15:31:04.129Z,99.07
2024-04-24T15:35:08.420Z,98.82
2024-04-24T15:39:10.964Z,100.00
2024-04-24T15:43:13.368Z,97.34
2024-04-24T15:47:15.803Z,92.34
2024-04-24T15:51:18.266Z,100.00
2024-04-24T15:55:22.476Z,100.00
2024-04-24T15:59:24.954Z,100.00
2024-04-24T16:03:27.388Z,100.00
2024-04-24T16:07:29.717Z,100.00
2024-04-24T16:11:32.870Z,100.00
2024-04-24T16:15:35.405Z,100.00
2024-04-24T16:19:38.842Z,100.00
2024-04-24T16:23:41.549Z,100.00
2024-04-24T16:27:43.952Z,100.00
2024-04-24T16:31:46.510Z,100.00
2024-04-24T16:35:48.881Z,100.00
2024-04-24T16:39:51.244Z,100.00
2024-04-24T16:43:53.643Z,100.00
2024-04-24T16:47:56.130Z,100.00
2024-04-24T16:51:58.681Z,100.00
2024-04-24T16:56:01.056Z,100.00
2024-04-24T17:00:03.875Z,100.00
2024-04-24T17:04:10.629Z,100.00
2024-04-24T17:08:13.101Z,100.00
2024-04-24T17:12:15.633Z,100.00
2024-04-24T17:16:18.655Z,100.00
2024-04-24T17:20:20.976Z,100.00
2024-04-24T17:24:23.319Z,100.00
2024-04-24T17:28:25.672Z,100.00
2024-04-24T17:32:28.111Z,100.00
2024-04-24T17:36:32.041Z,100.00
2024-04-24T17:40:36.094Z,100.00
2024-04-24T17:44:38.396Z,100.00
2024-04-24T17:48:40.870Z,100.00
2024-04-24T17:52:43.269Z,100.00
2024-04-24T17:56:45.579Z,100.00
2024-04-24T18:00:48.111Z,100.00
2024-04-24T18:04:50.436Z,100.00
2024-04-24T18:08:52.750Z,100.00
2024-04-24T18:12:56.146Z,100.00
2024-04-24T18:16:58.580Z,100.00
2024-04-24T18:21:03.167Z,100.00
2024-04-24T18:25:05.701Z,100.00
2024-04-24T18:29:08.218Z,100.00
2024-04-24T18:33:10.937Z,100.00
2024-04-24T18:37:13.447Z,100.00
2024-04-24T18:41:17.354Z,100.00
2024-04-24T18:45:19.735Z,100.00
2024-04-24T18:49:22.531Z,100.00
2024-04-24T18:53:25.011Z,100.00
2024-04-24T18:57:27.788Z,100.00
2024-04-24T19:01:30.172Z,100.00
2024-04-24T19:05:32.597Z,100.00
2024-04-24T19:09:36.134Z,100.00
2024-04-24T19:13:38.487Z,100.00
2024-04-24T19:17:42.903Z,100.00
2024-04-24T19:21:45.219Z,100.00
2024-04-24T19:25:47.632Z,100.00
2024-04-24T19:29:50.427Z,100.00
2024-04-24T19:33:52.787Z,100.00
2024-04-24T19:37:56.954Z,100.00
2024-04-24T19:41:59.324Z,100.00
2024-04-24T19:46:01.952Z,100.00
2024-04-24T19:50:05.016Z,100.00
2024-04-24T19:54:07.557Z,100.00
2024-04-24T19:58:09.902Z,100.00
2024-04-24T20:02:15.337Z,100.00
2024-04-24T20:06:19.621Z,100.00
2024-04-24T20:10:22.602Z,100.00
2024-04-24T20:14:25.831Z,100.00
2024-04-24T20:18:28.422Z,100.00
2024-04-24T20:22:30.924Z,100.00
2024-04-24T20:26:33.253Z,100.00
2024-04-24T20:30:36.155Z,100.00
2024-04-24T20:34:38.797Z,100.00
2024-04-24T20:38:41.474Z,100.00
2024-04-24T20:42:43.910Z,100.00
2024-04-24T20:46:46.375Z,100.00
2024-04-24T20:50:48.710Z,100.00
2024-04-24T20:54:51.168Z,100.00
2024-04-24T20:58:53.713Z,100.00
2024-04-24T21:02:56.306Z,100.00
2024-04-24T21:07:02.053Z,100.00
2024-04-24T21:11:05.376Z,100.00
2024-04-24T21:15:07.887Z,100.00
2024-04-24T21:19:10.568Z,100.00
2024-04-24T21:23:12.990Z,100.00
2024-04-24T21:27:16.001Z,100.00
2024-04-24T21:31:18.400Z,100.00
2024-04-24T21:35:20.752Z,100.00
2024-04-24T21:39:23.266Z,100.00
2024-04-24T21:43:27.121Z,100.00
2024-04-24T21:47:29.658Z,100.00
2024-04-24T21:51:32.349Z,100.00
2024-04-24T21:55:34.841Z,100.00
2024-04-24T21:59:38.792Z,100.00
2024-04-24T22:03:41.237Z,100.00
2024-04-24T22:07:43.614Z,100.00
2024-04-24T22:11:48.948Z,100.00
2024-04-24T22:15:52.068Z,100.00
2024-04-24T22:19:54.749Z,100.00
2024-04-24T22:23:57.711Z,100.00
2024-04-24T22:28:00.039Z,100.00
2024-04-24T22:32:03.190Z,100.00
2024-04-24T22:36:06.268Z,100.00
2024-04-24T22:40:09.059Z,100.00
2024-04-24T22:44:11.698Z,100.00
2024-04-24T22:48:14.086Z,100.00
2024-04-24T22:52:16.508Z,100.00
2024-04-24T22:56:18.901Z,100.00
2024-04-24T23:00:21.310Z,100.00
2024-04-24T23:04:26.547Z,100.00
2024-04-24T23:08:32.651Z,100.00
2024-04-24T23:12:39.430Z,100.00
2024-04-24T23:16:42.988Z,100.00
2024-04-24T23:20:45.401Z,100.00
2024-04-24T23:24:47.985Z,100.00
2024-04-24T23:28:50.357Z,100.00
2024-04-24T23:32:52.718Z,100.00
2024-04-24T23:36:55.089Z,100.00
2024-04-24T23:40:57.553Z,100.00
2024-04-24T23:44:59.903Z,100.00
2024-04-24T23:49:02.687Z,100.00
2024-04-24T23:53:05.295Z,100.00
2024-04-24T23:57:07.879Z,100.00
